sensor_id;sensor_type;location;lat;lon;timestamp;temperature;humidity
35244;DHT22;37916;52.160;21.066;2022-07-29T00:00:06;15.40;73.90
35244;DHT22;37916;52.160;21.066;2022-07-29T00:10:07;15.30;73.80
35244;DHT22;37916;52.160;21.066;2022-07-29T00:20:08;15.20;73.80
35244;DHT22;37916;52.160;21.066;2022-07-29T00:30:09;15.20;73.40
35244;DHT22;37916;52.160;21.066;2022-07-29T00:40:10;15.10;74.80
35244;DHT22;37916;52.160;21.066;2022-07-29T00:50:12;15.00;74.30
35244;DHT22;37916;52.160;21.066;2022-07-29T01:00:22;15.00;74.80
35244;DHT22;37916;52.160;21.066;2022-07-29T01:10:23;14.90;74.80
35244;DHT22;37916;52.160;21.066;2022-07-29T01:30:38;14.80;75.70
35244;DHT22;37916;52.160;21.066;2022-07-29T01:41:05;14.70;75.60
35244;DHT22;37916;52.160;21.066;2022-07-29T01:51:16;14.70;76.70
35244;DHT22;37916;52.160;21.066;2022-07-29T02:01:19;14.50;75.60
35244;DHT22;37916;52.160;21.066;2022-07-29T02:11:21;14.50;75.40
35244;DHT22;37916;52.160;21.066;2022-07-29T02:21:24;14.40;75.30
35244;DHT22;37916;52.160;21.066;2022-07-29T02:31:30;14.30;75.60
35244;DHT22;37916;52.160;21.066;2022-07-29T02:42:02;14.20;76.20
35244;DHT22;37916;52.160;21.066;2022-07-29T02:52:11;14.30;76.40
35244;DHT22;37916;52.160;21.066;2022-07-29T03:02:13;14.30;78.20
35244;DHT22;37916;52.160;21.066;2022-07-29T03:12:15;14.30;78.40
35244;DHT22;37916;52.160;21.066;2022-07-29T03:22:16;14.50;78.70
35244;DHT22;37916;52.160;21.066;2022-07-29T03:32:17;14.60;78.80
35244;DHT22;37916;52.160;21.066;2022-07-29T03:42:19;14.60;79.90
35244;DHT22;37916;52.160;21.066;2022-07-29T03:52:21;14.60;78.40
35244;DHT22;37916;52.160;21.066;2022-07-29T04:02:22;14.80;78.80
35244;DHT22;37916;52.160;21.066;2022-07-29T04:12:23;14.90;79.60
35244;DHT22;37916;52.160;21.066;2022-07-29T04:22:24;15.10;79.60
35244;DHT22;37916;52.160;21.066;2022-07-29T04:32:25;15.40;79.20
35244;DHT22;37916;52.160;21.066;2022-07-29T04:42:26;15.90;78.40
35244;DHT22;37916;52.160;21.066;2022-07-29T04:52:26;16.80;76.20
35244;DHT22;37916;52.160;21.066;2022-07-29T05:02:27;17.80;73.20
35244;DHT22;37916;52.160;21.066;2022-07-29T05:12:27;18.30;71.30
35244;DHT22;37916;52.160;21.066;2022-07-29T05:22:28;19.10;69.20
35244;DHT22;37916;52.160;21.066;2022-07-29T05:32:28;20.00;67.50
35244;DHT22;37916;52.160;21.066;2022-07-29T05:42:29;20.60;63.60
35244;DHT22;37916;52.160;21.066;2022-07-29T05:52:30;21.40;60.10
35244;DHT22;37916;52.160;21.066;2022-07-29T06:02:31;21.70;60.60
35244;DHT22;37916;52.160;21.066;2022-07-29T06:12:31;22.00;58.90
35244;DHT22;37916;52.160;21.066;2022-07-29T06:22:32;23.00;55.30
35244;DHT22;37916;52.160;21.066;2022-07-29T06:32:33;23.10;56.30
35244;DHT22;37916;52.160;21.066;2022-07-29T06:42:34;25.30;52.60
35244;DHT22;37916;52.160;21.066;2022-07-29T06:52:34;26.20;50.20
35244;DHT22;37916;52.160;21.066;2022-07-29T07:02:35;25.50;48.40
35244;DHT22;37916;52.160;21.066;2022-07-29T07:12:36;25.60;49.10
35244;DHT22;37916;52.160;21.066;2022-07-29T07:22:36;26.10;46.40
35244;DHT22;37916;52.160;21.066;2022-07-29T07:32:37;26.80;45.40
35244;DHT22;37916;52.160;21.066;2022-07-29T07:42:38;27.40;43.20
35244;DHT22;37916;52.160;21.066;2022-07-29T07:52:50;27.60;40.60
35244;DHT22;37916;52.160;21.066;2022-07-29T08:02:51;28.90;41.10
35244;DHT22;37916;52.160;21.066;2022-07-29T08:12:51;29.50;39.10
35244;DHT22;37916;52.160;21.066;2022-07-29T08:22:52;28.90;38.10
35244;DHT22;37916;52.160;21.066;2022-07-29T08:32:53;29.80;38.60
35244;DHT22;37916;52.160;21.066;2022-07-29T08:42:54;30.50;36.90
35244;DHT22;37916;52.160;21.066;2022-07-29T08:52:54;30.80;35.10
35244;DHT22;37916;52.160;21.066;2022-07-29T09:02:57;28.80;36.40
35244;DHT22;37916;52.160;21.066;2022-07-29T09:12:58;27.50;37.30
35244;DHT22;37916;52.160;21.066;2022-07-29T09:23:07;27.00;38.40
35244;DHT22;37916;52.160;21.066;2022-07-29T09:33:08;26.70;38.30
35244;DHT22;37916;52.160;21.066;2022-07-29T09:43:10;26.80;38.10
35244;DHT22;37916;52.160;21.066;2022-07-29T09:53:11;26.10;40.40
35244;DHT22;37916;52.160;21.066;2022-07-29T10:03:15;26.00;40.20
35244;DHT22;37916;52.160;21.066;2022-07-29T10:13:16;25.80;39.50
35244;DHT22;37916;52.160;21.066;2022-07-29T10:23:17;25.30;40.40
35244;DHT22;37916;52.160;21.066;2022-07-29T10:43:51;26.20;39.80
35244;DHT22;37916;52.160;21.066;2022-07-29T10:53:53;27.30;37.10
35244;DHT22;37916;52.160;21.066;2022-07-29T11:03:54;26.10;38.90
35244;DHT22;37916;52.160;21.066;2022-07-29T11:13:59;25.90;39.40
35244;DHT22;37916;52.160;21.066;2022-07-29T11:24:12;26.00;38.60
35244;DHT22;37916;52.160;21.066;2022-07-29T11:34:30;27.00;37.50
35244;DHT22;37916;52.160;21.066;2022-07-29T11:44:55;26.70;36.50
35244;DHT22;37916;52.160;21.066;2022-07-29T11:55:01;26.50;37.20
35244;DHT22;37916;52.160;21.066;2022-07-29T12:05:04;26.90;37.30
35244;DHT22;37916;52.160;21.066;2022-07-29T12:15:15;26.50;37.60
35244;DHT22;37916;52.160;21.066;2022-07-29T12:25:17;26.40;37.10
35244;DHT22;37916;52.160;21.066;2022-07-29T12:35:19;26.10;36.80
35244;DHT22;37916;52.160;21.066;2022-07-29T12:45:28;26.20;36.90
35244;DHT22;37916;52.160;21.066;2022-07-29T12:55:43;25.90;38.50
35244;DHT22;37916;52.160;21.066;2022-07-29T13:05:45;26.30;38.40
35244;DHT22;37916;52.160;21.066;2022-07-29T13:15:45;26.70;37.80
35244;DHT22;37916;52.160;21.066;2022-07-29T13:25:49;26.70;37.10
35244;DHT22;37916;52.160;21.066;2022-07-29T13:35:50;26.20;38.00
35244;DHT22;37916;52.160;21.066;2022-07-29T13:45:50;26.20;37.90
35244;DHT22;37916;52.160;21.066;2022-07-29T13:55:52;26.30;36.90
35244;DHT22;37916;52.160;21.066;2022-07-29T14:05:53;26.70;37.60
35244;DHT22;37916;52.160;21.066;2022-07-29T14:15:54;26.50;37.30
35244;DHT22;37916;52.160;21.066;2022-07-29T14:25:54;25.50;38.30
35244;DHT22;37916;52.160;21.066;2022-07-29T14:35:55;25.80;38.00
35244;DHT22;37916;52.160;21.066;2022-07-29T14:45:56;26.00;38.00
35244;DHT22;37916;52.160;21.066;2022-07-29T14:55:56;25.60;38.10
35244;DHT22;37916;52.160;21.066;2022-07-29T15:05:57;25.80;38.50
35244;DHT22;37916;52.160;21.066;2022-07-29T15:15:57;25.70;38.40
35244;DHT22;37916;52.160;21.066;2022-07-29T15:25:58;25.20;39.60
35244;DHT22;37916;52.160;21.066;2022-07-29T15:35:59;25.10;39.60
35244;DHT22;37916;52.160;21.066;2022-07-29T15:45:59;25.00;39.60
35244;DHT22;37916;52.160;21.066;2022-07-29T15:56:18;24.90;39.80
35244;DHT22;37916;52.160;21.066;2022-07-29T16:06:19;24.60;40.10
35244;DHT22;37916;52.160;21.066;2022-07-29T16:16:20;24.70;40.00
35244;DHT22;37916;52.160;21.066;2022-07-29T16:26:20;24.30;40.20
35244;DHT22;37916;52.160;21.066;2022-07-29T16:36:21;24.20;40.90
35244;DHT22;37916;52.160;21.066;2022-07-29T16:46:22;24.10;40.60
35244;DHT22;37916;52.160;21.066;2022-07-29T16:56:29;24.10;40.90
35244;DHT22;37916;52.160;21.066;2022-07-29T17:06:30;23.90;41.30
35244;DHT22;37916;52.160;21.066;2022-07-29T17:16:34;23.90;41.50
35244;DHT22;37916;52.160;21.066;2022-07-29T17:26:35;23.80;41.70
35244;DHT22;37916;52.160;21.066;2022-07-29T17:36:35;23.90;41.30
35244;DHT22;37916;52.160;21.066;2022-07-29T17:46:37;23.80;41.60
35244;DHT22;37916;52.160;21.066;2022-07-29T17:57:13;23.50;41.90
35244;DHT22;37916;52.160;21.066;2022-07-29T18:07:17;23.20;42.60
35244;DHT22;37916;52.160;21.066;2022-07-29T18:17:18;23.00;43.20
35244;DHT22;37916;52.160;21.066;2022-07-29T18:27:21;22.70;43.90
35244;DHT22;37916;52.160;21.066;2022-07-29T18:37:25;22.50;45.50
35244;DHT22;37916;52.160;21.066;2022-07-29T18:47:26;22.10;46.60
35244;DHT22;37916;52.160;21.066;2022-07-29T19:28:47;21.20;50.40
35244;DHT22;37916;52.160;21.066;2022-07-29T19:38:48;20.90;51.00
35244;DHT22;37916;52.160;21.066;2022-07-29T19:48:49;20.70;51.50
35244;DHT22;37916;52.160;21.066;2022-07-29T19:58:50;20.60;51.60
35244;DHT22;37916;52.160;21.066;2022-07-29T20:08:52;20.50;51.20
35244;DHT22;37916;52.160;21.066;2022-07-29T20:18:56;20.30;51.70
35244;DHT22;37916;52.160;21.066;2022-07-29T20:29:02;20.30;51.50
35244;DHT22;37916;52.160;21.066;2022-07-29T20:39:04;20.10;52.20
35244;DHT22;37916;52.160;21.066;2022-07-29T20:49:05;20.10;52.10
35244;DHT22;37916;52.160;21.066;2022-07-29T20:59:07;20.00;52.60
35244;DHT22;37916;52.160;21.066;2022-07-29T21:09:08;20.00;52.70
35244;DHT22;37916;52.160;21.066;2022-07-29T21:19:08;19.80;53.00
35244;DHT22;37916;52.160;21.066;2022-07-29T21:29:09;19.80;53.20
35244;DHT22;37916;52.160;21.066;2022-07-29T21:39:10;19.80;52.90
35244;DHT22;37916;52.160;21.066;2022-07-29T21:49:10;19.80;53.00
35244;DHT22;37916;52.160;21.066;2022-07-29T21:59:11;19.80;52.80
35244;DHT22;37916;52.160;21.066;2022-07-29T22:09:12;19.80;53.00
35244;DHT22;37916;52.160;21.066;2022-07-29T22:19:13;19.70;53.00
35244;DHT22;37916;52.160;21.066;2022-07-29T22:29:14;19.50;54.10
35244;DHT22;37916;52.160;21.066;2022-07-29T22:39:17;19.50;54.00
35244;DHT22;37916;52.160;21.066;2022-07-29T22:49:17;19.20;55.40
35244;DHT22;37916;52.160;21.066;2022-07-29T22:59:18;19.20;54.90
35244;DHT22;37916;52.160;21.066;2022-07-29T23:09:18;19.20;55.00
35244;DHT22;37916;52.160;21.066;2022-07-29T23:19:19;19.20;54.80
35244;DHT22;37916;52.160;21.066;2022-07-29T23:29:20;19.20;54.80
35244;DHT22;37916;52.160;21.066;2022-07-29T23:39:20;19.20;54.70
35244;DHT22;37916;52.160;21.066;2022-07-29T23:49:21;19.20;54.80
35244;DHT22;37916;52.160;21.066;2022-07-29T23:59:22;19.20;55.10
